sensor_id;sensor_type;location;lat;lon;timestamp;pressure;altitude;pressure_sealevel;temperature;humidity
22647;BME280;11490;42.726;23.268;2022-09-25T00:01:59;95578.69;;;10.13;82.04
22647;BME280;11490;42.726;23.268;2022-09-25T00:04:25;95586.75;;;10.24;81.17
22647;BME280;11490;42.726;23.268;2022-09-25T00:06:50;95574.56;;;9.98;81.47
22647;BME280;11490;42.726;23.268;2022-09-25T00:09:15;95572.25;;;10.02;80.99
22647;BME280;11490;42.726;23.268;2022-09-25T00:11:45;95598.59;;;10.10;80.70
22647;BME280;11490;42.726;23.268;2022-09-25T00:14:10;95589.88;;;10.03;82.23
22647;BME280;11490;42.726;23.268;2022-09-25T00:16:36;95575.34;;;9.99;81.22
22647;BME280;11490;42.726;23.268;2022-09-25T00:19:01;95577.88;;;9.94;81.02
22647;BME280;11490;42.726;23.268;2022-09-25T00:21:45;95584.41;;;9.61;83.79
22647;BME280;11490;42.726;23.268;2022-09-25T00:24:20;95574.78;;;9.60;83.96
22647;BME280;11490;42.726;23.268;2022-09-25T00:26:46;95582.28;;;9.70;81.54
22647;BME280;11490;42.726;23.268;2022-09-25T00:29:17;95584.06;;;9.58;84.25
22647;BME280;11490;42.726;23.268;2022-09-25T00:31:43;95575.09;;;9.52;82.51
22647;BME280;11490;42.726;23.268;2022-09-25T00:34:09;95584.63;;;9.42;84.82
22647;BME280;11490;42.726;23.268;2022-09-25T00:36:34;95554.69;;;9.46;83.28
22647;BME280;11490;42.726;23.268;2022-09-25T00:39:00;95570.53;;;9.59;81.64
22647;BME280;11490;42.726;23.268;2022-09-25T00:41:27;95575.03;;;9.59;82.90
22647;BME280;11490;42.726;23.268;2022-09-25T00:43:56;95561.22;;;9.50;81.80
22647;BME280;11490;42.726;23.268;2022-09-25T00:46:32;95554.59;;;9.53;81.66
22647;BME280;11490;42.726;23.268;2022-09-25T00:49:20;95534.72;;;9.19;83.02
22647;BME280;11490;42.726;23.268;2022-09-25T00:52:02;95569.47;;;9.42;82.90
22647;BME280;11490;42.726;23.268;2022-09-25T00:54:34;95572.44;;;9.34;84.08
22647;BME280;11490;42.726;23.268;2022-09-25T00:57:05;95558.09;;;9.35;82.47
22647;BME280;11490;42.726;23.268;2022-09-25T00:59:35;95559.00;;;9.29;83.60
22647;BME280;11490;42.726;23.268;2022-09-25T01:02:02;95552.78;;;9.35;83.66
22647;BME280;11490;42.726;23.268;2022-09-25T01:04:30;95548.91;;;9.13;85.37
22647;BME280;11490;42.726;23.268;2022-09-25T01:06:58;95548.03;;;9.37;84.06
22647;BME280;11490;42.726;23.268;2022-09-25T01:09:24;95548.19;;;9.42;83.54
22647;BME280;11490;42.726;23.268;2022-09-25T01:11:50;95546.97;;;9.38;83.28
22647;BME280;11490;42.726;23.268;2022-09-25T01:14:15;95547.72;;;9.09;83.72
22647;BME280;11490;42.726;23.268;2022-09-25T01:16:47;95541.97;;;9.12;85.22
22647;BME280;11490;42.726;23.268;2022-09-25T01:22:09;95550.09;;;9.17;84.24
22647;BME280;11490;42.726;23.268;2022-09-25T01:27:29;95555.94;;;9.25;83.52
22647;BME280;11490;42.726;23.268;2022-09-25T01:33:09;95545.19;;;9.14;83.35
22647;BME280;11490;42.726;23.268;2022-09-25T01:38:25;95550.50;;;9.14;83.36
22647;BME280;11490;42.726;23.268;2022-09-25T01:43:45;95555.75;;;8.59;85.04
22647;BME280;11490;42.726;23.268;2022-09-25T01:46:14;95574.41;;;8.46;87.93
22647;BME280;11490;42.726;23.268;2022-09-25T01:48:43;95568.66;;;8.80;86.07
22647;BME280;11490;42.726;23.268;2022-09-25T01:51:23;95564.44;;;8.41;87.96
22647;BME280;11490;42.726;23.268;2022-09-25T01:53:54;95561.16;;;8.71;85.99
22647;BME280;11490;42.726;23.268;2022-09-25T01:56:35;95575.41;;;8.76;85.92
22647;BME280;11490;42.726;23.268;2022-09-25T01:59:15;95555.97;;;8.82;84.20
22647;BME280;11490;42.726;23.268;2022-09-25T02:01:43;95556.53;;;8.84;83.97
22647;BME280;11490;42.726;23.268;2022-09-25T02:04:13;95546.41;;;8.75;85.08
22647;BME280;11490;42.726;23.268;2022-09-25T02:06:44;95552.09;;;8.78;85.85
22647;BME280;11490;42.726;23.268;2022-09-25T02:09:20;95552.03;;;8.85;84.55
22647;BME280;11490;42.726;23.268;2022-09-25T02:11:50;95542.25;;;8.79;84.13
22647;BME280;11490;42.726;23.268;2022-09-25T02:16:47;95557.47;;;8.72;83.66
22647;BME280;11490;42.726;23.268;2022-09-25T02:19:15;95557.06;;;8.68;84.25
22647;BME280;11490;42.726;23.268;2022-09-25T02:27:02;95574.34;;;8.59;84.57
22647;BME280;11490;42.726;23.268;2022-09-25T02:29:28;95564.56;;;8.53;85.10
22647;BME280;11490;42.726;23.268;2022-09-25T02:32:04;95565.72;;;8.64;84.45
22647;BME280;11490;42.726;23.268;2022-09-25T02:34:32;95558.56;;;8.33;86.89
22647;BME280;11490;42.726;23.268;2022-09-25T02:36:57;95535.25;;;8.35;86.39
22647;BME280;11490;42.726;23.268;2022-09-25T02:39:25;95563.38;;;8.49;85.49
22647;BME280;11490;42.726;23.268;2022-09-25T02:42:30;95564.47;;;8.66;85.43
22647;BME280;11490;42.726;23.268;2022-09-25T02:48:13;95568.09;;;8.72;85.16
22647;BME280;11490;42.726;23.268;2022-09-25T02:55:52;95561.22;;;8.64;86.92
22647;BME280;11490;42.726;23.268;2022-09-25T02:58:26;95561.81;;;8.66;85.81
22647;BME280;11490;42.726;23.268;2022-09-25T03:00:54;95559.50;;;8.45;87.93
22647;BME280;11490;42.726;23.268;2022-09-25T03:03:23;95553.06;;;8.59;87.72
22647;BME280;11490;42.726;23.268;2022-09-25T03:05:50;95543.56;;;8.07;89.54
22647;BME280;11490;42.726;23.268;2022-09-25T03:08:19;95551.97;;;8.42;88.78
22647;BME280;11490;42.726;23.268;2022-09-25T03:11:11;95552.34;;;8.07;89.13
22647;BME280;11490;42.726;23.268;2022-09-25T03:13:37;95534.06;;;8.31;88.20
22647;BME280;11490;42.726;23.268;2022-09-25T03:16:09;95550.59;;;8.33;87.52
22647;BME280;11490;42.726;23.268;2022-09-25T03:18:35;95550.69;;;7.82;90.83
22647;BME280;11490;42.726;23.268;2022-09-25T03:21:00;95559.25;;;8.15;90.27
22647;BME280;11490;42.726;23.268;2022-09-25T03:23:28;95549.16;;;8.30;89.52
22647;BME280;11490;42.726;23.268;2022-09-25T03:25:54;95564.28;;;8.61;88.17
22647;BME280;11490;42.726;23.268;2022-09-25T03:28:20;95557.09;;;8.37;87.73
22647;BME280;11490;42.726;23.268;2022-09-25T03:30:57;95554.44;;;8.37;89.95
22647;BME280;11490;42.726;23.268;2022-09-25T03:33:24;95549.81;;;8.57;87.65
22647;BME280;11490;42.726;23.268;2022-09-25T03:35:59;95548.59;;;8.53;87.86
22647;BME280;11490;42.726;23.268;2022-09-25T03:38:24;95539.34;;;8.62;86.60
22647;BME280;11490;42.726;23.268;2022-09-25T03:40:50;95550.84;;;8.56;85.85
22647;BME280;11490;42.726;23.268;2022-09-25T03:43:15;95543.13;;;8.17;86.60
22647;BME280;11490;42.726;23.268;2022-09-25T03:45:40;95553.56;;;7.73;90.31
22647;BME280;11490;42.726;23.268;2022-09-25T03:48:06;95548.94;;;8.00;89.81
22647;BME280;11490;42.726;23.268;2022-09-25T03:50:31;95557.56;;;8.27;88.67
22647;BME280;11490;42.726;23.268;2022-09-25T03:52:57;95555.50;;;8.36;87.45
22647;BME280;11490;42.726;23.268;2022-09-25T03:55:22;95557.22;;;8.17;86.25
22647;BME280;11490;42.726;23.268;2022-09-25T03:57:50;95563.19;;;8.13;88.27
22647;BME280;11490;42.726;23.268;2022-09-25T04:00:15;95568.03;;;8.16;87.53
22647;BME280;11490;42.726;23.268;2022-09-25T04:02:41;95571.66;;;8.28;87.17
22647;BME280;11490;42.726;23.268;2022-09-25T04:05:07;95559.56;;;8.00;86.85
22647;BME280;11490;42.726;23.268;2022-09-25T04:07:33;95567.69;;;8.05;88.19
22647;BME280;11490;42.726;23.268;2022-09-25T04:09:59;95570.44;;;7.92;88.66
22647;BME280;11490;42.726;23.268;2022-09-25T04:12:24;95562.09;;;7.82;88.10
22647;BME280;11490;42.726;23.268;2022-09-25T04:14:50;95560.56;;;7.99;87.82
22647;BME280;11490;42.726;23.268;2022-09-25T04:17:16;95571.03;;;7.94;88.53
22647;BME280;11490;42.726;23.268;2022-09-25T04:19:41;95566.09;;;8.04;87.44
22647;BME280;11490;42.726;23.268;2022-09-25T04:22:06;95576.72;;;8.04;86.51
22647;BME280;11490;42.726;23.268;2022-09-25T04:24:32;95567.41;;;7.89;87.43
22647;BME280;11490;42.726;23.268;2022-09-25T04:27:13;95552.75;;;7.73;89.40
22647;BME280;11490;42.726;23.268;2022-09-25T04:29:39;95542.06;;;7.86;88.80
22647;BME280;11490;42.726;23.268;2022-09-25T04:32:06;95547.16;;;7.88;88.65
22647;BME280;11490;42.726;23.268;2022-09-25T04:34:50;95551.94;;;7.72;88.20
22647;BME280;11490;42.726;23.268;2022-09-25T04:37:18;95543.78;;;7.74;89.38
22647;BME280;11490;42.726;23.268;2022-09-25T04:39:47;95565.31;;;7.97;87.83
22647;BME280;11490;42.726;23.268;2022-09-25T04:42:14;95531.44;;;7.86;87.53
22647;BME280;11490;42.726;23.268;2022-09-25T04:44:39;95529.78;;;7.92;86.75
22647;BME280;11490;42.726;23.268;2022-09-25T04:47:04;95575.84;;;8.10;86.79
22647;BME280;11490;42.726;23.268;2022-09-25T04:49:30;95573.78;;;7.68;89.31
22647;BME280;11490;42.726;23.268;2022-09-25T04:51:55;95562.91;;;7.89;88.85
22647;BME280;11490;42.726;23.268;2022-09-25T04:54:21;95578.47;;;7.79;89.66
22647;BME280;11490;42.726;23.268;2022-09-25T04:56:46;95563.22;;;7.99;88.86
22647;BME280;11490;42.726;23.268;2022-09-25T04:59:11;95580.03;;;7.93;88.42
22647;BME280;11490;42.726;23.268;2022-09-25T05:01:37;95586.03;;;8.20;88.04
22647;BME280;11490;42.726;23.268;2022-09-25T05:04:03;95561.50;;;8.18;87.51
22647;BME280;11490;42.726;23.268;2022-09-25T05:06:28;95578.38;;;8.30;86.95
22647;BME280;11490;42.726;23.268;2022-09-25T05:08:53;95569.00;;;8.34;86.96
22647;BME280;11490;42.726;23.268;2022-09-25T05:11:21;95577.69;;;8.48;87.18
22647;BME280;11490;42.726;23.268;2022-09-25T05:13:51;95571.56;;;8.47;87.70
22647;BME280;11490;42.726;23.268;2022-09-25T05:16:17;95578.34;;;8.68;87.05
22647;BME280;11490;42.726;23.268;2022-09-25T05:18:42;95571.47;;;8.85;86.59
22647;BME280;11490;42.726;23.268;2022-09-25T05:21:08;95568.94;;;8.91;85.78
22647;BME280;11490;42.726;23.268;2022-09-25T05:23:33;95580.78;;;8.95;85.70
22647;BME280;11490;42.726;23.268;2022-09-25T05:25:59;95570.56;;;8.92;85.25
22647;BME280;11490;42.726;23.268;2022-09-25T05:28:30;95570.31;;;9.00;85.52
22647;BME280;11490;42.726;23.268;2022-09-25T05:31:02;95574.03;;;9.17;85.38
22647;BME280;11490;42.726;23.268;2022-09-25T05:33:32;95567.53;;;9.31;85.38
22647;BME280;11490;42.726;23.268;2022-09-25T05:36:03;95536.91;;;9.22;84.53
22647;BME280;11490;42.726;23.268;2022-09-25T05:38:34;95578.94;;;9.38;85.31
22647;BME280;11490;42.726;23.268;2022-09-25T05:41:03;95574.34;;;9.45;85.71
22647;BME280;11490;42.726;23.268;2022-09-25T05:43:29;95566.06;;;9.53;84.97
22647;BME280;11490;42.726;23.268;2022-09-25T05:45:56;95581.19;;;9.59;85.62
22647;BME280;11490;42.726;23.268;2022-09-25T05:48:22;95568.91;;;9.58;85.25
22647;BME280;11490;42.726;23.268;2022-09-25T05:50:55;95555.28;;;9.67;84.65
22647;BME280;11490;42.726;23.268;2022-09-25T05:53:21;95560.88;;;9.77;84.42
22647;BME280;11490;42.726;23.268;2022-09-25T05:55:52;95575.63;;;10.09;84.54
22647;BME280;11490;42.726;23.268;2022-09-25T05:58:17;95574.91;;;10.02;83.62
22647;BME280;11490;42.726;23.268;2022-09-25T06:00:43;95575.63;;;10.09;83.96
22647;BME280;11490;42.726;23.268;2022-09-25T06:03:09;95580.69;;;10.17;84.65
22647;BME280;11490;42.726;23.268;2022-09-25T06:05:35;95565.69;;;10.46;83.00
22647;BME280;11490;42.726;23.268;2022-09-25T06:08:01;95561.09;;;10.53;82.03
22647;BME280;11490;42.726;23.268;2022-09-25T06:10:26;95568.75;;;10.61;82.34
22647;BME280;11490;42.726;23.268;2022-09-25T06:12:59;95565.41;;;10.66;81.83
22647;BME280;11490;42.726;23.268;2022-09-25T06:15:26;95576.38;;;10.99;80.59
22647;BME280;11490;42.726;23.268;2022-09-25T06:17:52;95568.47;;;10.81;81.64
22647;BME280;11490;42.726;23.268;2022-09-25T06:20:17;95578.25;;;11.22;80.45
22647;BME280;11490;42.726;23.268;2022-09-25T06:22:43;95567.06;;;10.67;81.10
22647;BME280;11490;42.726;23.268;2022-09-25T06:25:08;95583.34;;;11.24;80.86
22647;BME280;11490;42.726;23.268;2022-09-25T06:27:35;95577.94;;;11.70;78.26
22647;BME280;11490;42.726;23.268;2022-09-25T06:30:01;95584.66;;;12.08;76.20
22647;BME280;11490;42.726;23.268;2022-09-25T06:32:26;95563.94;;;12.15;76.07
22647;BME280;11490;42.726;23.268;2022-09-25T06:34:52;95578.72;;;12.34;75.55
22647;BME280;11490;42.726;23.268;2022-09-25T06:37:17;95576.72;;;12.13;74.91
22647;BME280;11490;42.726;23.268;2022-09-25T06:39:42;95574.13;;;12.18;74.56
22647;BME280;11490;42.726;23.268;2022-09-25T06:42:08;95575.19;;;12.45;74.73
22647;BME280;11490;42.726;23.268;2022-09-25T06:44:33;95577.81;;;12.73;72.65
22647;BME280;11490;42.726;23.268;2022-09-25T06:46:58;95571.97;;;12.93;72.45
22647;BME280;11490;42.726;23.268;2022-09-25T06:49:26;95568.81;;;12.80;71.00
22647;BME280;11490;42.726;23.268;2022-09-25T06:51:51;95564.53;;;12.95;73.05
22647;BME280;11490;42.726;23.268;2022-09-25T06:54:17;95568.94;;;13.18;71.00
22647;BME280;11490;42.726;23.268;2022-09-25T06:56:51;95564.38;;;13.35;71.81
22647;BME280;11490;42.726;23.268;2022-09-25T06:59:17;95572.44;;;13.57;69.04
22647;BME280;11490;42.726;23.268;2022-09-25T07:01:42;95567.81;;;13.91;70.07
22647;BME280;11490;42.726;23.268;2022-09-25T07:04:08;95580.28;;;14.46;65.92
22647;BME280;11490;42.726;23.268;2022-09-25T07:06:34;95596.56;;;14.66;66.21
22647;BME280;11490;42.726;23.268;2022-09-25T07:09:01;95587.88;;;14.54;64.02
22647;BME280;11490;42.726;23.268;2022-09-25T07:11:28;95592.03;;;14.67;64.62
22647;BME280;11490;42.726;23.268;2022-09-25T07:13:53;95596.81;;;14.91;65.24
22647;BME280;11490;42.726;23.268;2022-09-25T07:16:22;95596.97;;;15.07;62.21
22647;BME280;11490;42.726;23.268;2022-09-25T07:18:47;95611.94;;;15.34;62.82
22647;BME280;11490;42.726;23.268;2022-09-25T07:21:15;95603.25;;;15.22;61.21
22647;BME280;11490;42.726;23.268;2022-09-25T07:23:41;95611.13;;;15.34;61.38
22647;BME280;11490;42.726;23.268;2022-09-25T07:26:09;95610.97;;;15.88;60.66
22647;BME280;11490;42.726;23.268;2022-09-25T07:28:36;95615.06;;;15.95;61.52
22647;BME280;11490;42.726;23.268;2022-09-25T07:31:17;95605.09;;;15.96;60.97
22647;BME280;11490;42.726;23.268;2022-09-25T07:33:44;95593.91;;;16.19;59.61
22647;BME280;11490;42.726;23.268;2022-09-25T07:36:10;95590.13;;;16.10;58.19
22647;BME280;11490;42.726;23.268;2022-09-25T07:38:36;95578.88;;;16.23;58.09
22647;BME280;11490;42.726;23.268;2022-09-25T07:41:04;95563.13;;;15.90;58.21
22647;BME280;11490;42.726;23.268;2022-09-25T07:43:31;95571.69;;;15.82;59.63
22647;BME280;11490;42.726;23.268;2022-09-25T07:45:57;95567.81;;;15.62;58.64
22647;BME280;11490;42.726;23.268;2022-09-25T07:48:26;95569.47;;;15.68;59.29
22647;BME280;11490;42.726;23.268;2022-09-25T07:50:52;95554.13;;;15.27;59.81
22647;BME280;11490;42.726;23.268;2022-09-25T07:53:19;95538.06;;;15.37;61.10
22647;BME280;11490;42.726;23.268;2022-09-25T07:55:45;95540.50;;;15.38;60.38
22647;BME280;11490;42.726;23.268;2022-09-25T07:58:11;95528.88;;;15.28;60.78
22647;BME280;11490;42.726;23.268;2022-09-25T08:00:37;95542.72;;;15.10;61.31
22647;BME280;11490;42.726;23.268;2022-09-25T08:03:04;95541.22;;;15.29;60.90
22647;BME280;11490;42.726;23.268;2022-09-25T08:05:30;95544.31;;;15.48;61.10
22647;BME280;11490;42.726;23.268;2022-09-25T08:07:55;95553.25;;;15.53;61.40
22647;BME280;11490;42.726;23.268;2022-09-25T08:10:20;95544.13;;;15.59;60.42
22647;BME280;11490;42.726;23.268;2022-09-25T08:12:46;95541.09;;;16.03;59.44
22647;BME280;11490;42.726;23.268;2022-09-25T08:15:12;95520.78;;;16.47;57.88
22647;BME280;11490;42.726;23.268;2022-09-25T08:17:41;95526.78;;;17.25;56.70
22647;BME280;11490;42.726;23.268;2022-09-25T08:20:07;95517.53;;;17.67;54.22
22647;BME280;11490;42.726;23.268;2022-09-25T08:22:33;95514.97;;;18.06;52.10
22647;BME280;11490;42.726;23.268;2022-09-25T08:24:59;95521.19;;;18.06;52.61
22647;BME280;11490;42.726;23.268;2022-09-25T08:27:30;95503.19;;;18.36;53.92
22647;BME280;11490;42.726;23.268;2022-09-25T08:29:56;95532.81;;;18.51;52.30
22647;BME280;11490;42.726;23.268;2022-09-25T08:32:21;95492.22;;;18.71;49.81
22647;BME280;11490;42.726;23.268;2022-09-25T08:34:47;95515.94;;;19.42;48.13
22647;BME280;11490;42.726;23.268;2022-09-25T08:37:13;95499.22;;;19.88;47.99
22647;BME280;11490;42.726;23.268;2022-09-25T08:39:39;95511.78;;;20.45;46.59
22647;BME280;11490;42.726;23.268;2022-09-25T08:42:05;95509.53;;;19.86;44.25
22647;BME280;11490;42.726;23.268;2022-09-25T08:45:04;95513.84;;;19.34;45.30
22647;BME280;11490;42.726;23.268;2022-09-25T08:47:53;95516.16;;;19.75;46.98
22647;BME280;11490;42.726;23.268;2022-09-25T08:50:38;95513.13;;;20.05;47.19
22647;BME280;11490;42.726;23.268;2022-09-25T08:53:16;95524.38;;;20.92;44.77
22647;BME280;11490;42.726;23.268;2022-09-25T08:55:43;95519.31;;;21.04;45.19
22647;BME280;11490;42.726;23.268;2022-09-25T08:58:30;95511.13;;;20.72;43.51
22647;BME280;11490;42.726;23.268;2022-09-25T09:01:17;95507.47;;;21.14;44.40
22647;BME280;11490;42.726;23.268;2022-09-25T09:04:03;95491.78;;;21.30;42.14
22647;BME280;11490;42.726;23.268;2022-09-25T09:06:36;95482.22;;;21.19;41.16
22647;BME280;11490;42.726;23.268;2022-09-25T09:09:23;95486.69;;;21.69;42.16
22647;BME280;11490;42.726;23.268;2022-09-25T09:12:11;95483.09;;;21.60;42.43
22647;BME280;11490;42.726;23.268;2022-09-25T09:14:46;95473.34;;;21.73;41.78
22647;BME280;11490;42.726;23.268;2022-09-25T09:17:18;95461.97;;;21.84;41.58
22647;BME280;11490;42.726;23.268;2022-09-25T09:19:47;95469.53;;;21.87;40.09
22647;BME280;11490;42.726;23.268;2022-09-25T09:22:21;95473.22;;;21.92;41.05
22647;BME280;11490;42.726;23.268;2022-09-25T09:29:53;95483.06;;;20.82;41.52
22647;BME280;11490;42.726;23.268;2022-09-25T09:32:24;95486.41;;;20.92;40.44
22647;BME280;11490;42.726;23.268;2022-09-25T09:40:43;95455.53;;;20.56;42.08
22647;BME280;11490;42.726;23.268;2022-09-25T09:43:36;95472.72;;;20.84;41.69
22647;BME280;11490;42.726;23.268;2022-09-25T09:54:13;95433.84;;;20.74;40.53
22647;BME280;11490;42.726;23.268;2022-09-25T09:56:41;95432.75;;;20.57;39.48
22647;BME280;11490;42.726;23.268;2022-09-25T09:59:15;95444.06;;;20.78;41.21
22647;BME280;11490;42.726;23.268;2022-09-25T10:01:42;95433.94;;;20.83;41.38
22647;BME280;11490;42.726;23.268;2022-09-25T10:04:14;95417.31;;;20.90;41.27
22647;BME280;11490;42.726;23.268;2022-09-25T10:06:52;95409.53;;;20.83;40.99
22647;BME280;11490;42.726;23.268;2022-09-25T10:09:19;95411.91;;;20.39;41.63
22647;BME280;11490;42.726;23.268;2022-09-25T10:11:48;95417.03;;;20.59;41.30
22647;BME280;11490;42.726;23.268;2022-09-25T10:14:30;95408.13;;;20.72;41.16
22647;BME280;11490;42.726;23.268;2022-09-25T10:16:56;95379.53;;;20.28;41.19
22647;BME280;11490;42.726;23.268;2022-09-25T10:19:24;95395.03;;;20.60;41.04
22647;BME280;11490;42.726;23.268;2022-09-25T10:21:56;95370.34;;;20.62;39.60
22647;BME280;11490;42.726;23.268;2022-09-25T10:24:55;95414.53;;;20.76;40.76
22647;BME280;11490;42.726;23.268;2022-09-25T10:27:42;95378.41;;;20.29;40.77
22647;BME280;11490;42.726;23.268;2022-09-25T10:30:17;95368.31;;;20.16;41.13
22647;BME280;11490;42.726;23.268;2022-09-25T10:35:18;95355.59;;;19.98;39.96
22647;BME280;11490;42.726;23.268;2022-09-25T10:37:47;95396.44;;;20.20;41.34
22647;BME280;11490;42.726;23.268;2022-09-25T10:40:31;95342.28;;;20.20;42.70
22647;BME280;11490;42.726;23.268;2022-09-25T10:43:13;95351.78;;;20.36;41.16
22647;BME280;11490;42.726;23.268;2022-09-25T10:45:39;95335.59;;;20.31;42.50
22647;BME280;11490;42.726;23.268;2022-09-25T10:51:09;95367.09;;;20.60;43.03
22647;BME280;11490;42.726;23.268;2022-09-25T10:53:35;95379.56;;;20.61;41.15
22647;BME280;11490;42.726;23.268;2022-09-25T10:56:09;95378.69;;;20.65;41.20
22647;BME280;11490;42.726;23.268;2022-09-25T10:58:44;95383.81;;;20.67;41.65
22647;BME280;11490;42.726;23.268;2022-09-25T11:01:12;95375.47;;;20.63;41.16
22647;BME280;11490;42.726;23.268;2022-09-25T11:03:49;95372.31;;;20.75;41.65
22647;BME280;11490;42.726;23.268;2022-09-25T11:06:19;95361.34;;;20.80;41.35
22647;BME280;11490;42.726;23.268;2022-09-25T11:08:46;95342.47;;;20.75;41.62
22647;BME280;11490;42.726;23.268;2022-09-25T11:11:22;95339.44;;;20.77;40.87
22647;BME280;11490;42.726;23.268;2022-09-25T11:13:53;95335.84;;;20.81;40.29
22647;BME280;11490;42.726;23.268;2022-09-25T11:16:50;95351.34;;;20.94;40.18
22647;BME280;11490;42.726;23.268;2022-09-25T11:19:31;95337.94;;;20.84;39.85
22647;BME280;11490;42.726;23.268;2022-09-25T11:22:11;95361.19;;;20.90;40.84
22647;BME280;11490;42.726;23.268;2022-09-25T11:24:50;95340.06;;;20.87;40.07
22647;BME280;11490;42.726;23.268;2022-09-25T11:29:55;95300.38;;;20.64;40.17
22647;BME280;11490;42.726;23.268;2022-09-25T11:35:25;95330.25;;;21.05;40.40
22647;BME280;11490;42.726;23.268;2022-09-25T11:40:42;95323.25;;;21.18;39.43
22647;BME280;11490;42.726;23.268;2022-09-25T11:46:34;95279.44;;;21.10;39.53
22647;BME280;11490;42.726;23.268;2022-09-25T11:49:20;95268.56;;;21.10;37.07
22647;BME280;11490;42.726;23.268;2022-09-25T12:00:18;95291.81;;;21.80;35.51
22647;BME280;11490;42.726;23.268;2022-09-25T12:19:38;95254.03;;;21.70;38.03
22647;BME280;11490;42.726;23.268;2022-09-25T12:30:09;95262.13;;;22.19;37.17
22647;BME280;11490;42.726;23.268;2022-09-25T12:35:46;95260.00;;;22.16;37.91
22647;BME280;11490;42.726;23.268;2022-09-25T12:41:12;95236.34;;;21.95;39.58
22647;BME280;11490;42.726;23.268;2022-09-25T12:43:49;95254.50;;;22.08;40.68
22647;BME280;11490;42.726;23.268;2022-09-25T12:54:14;95228.94;;;22.09;39.54
22647;BME280;11490;42.726;23.268;2022-09-25T12:56:57;95227.72;;;22.15;39.04
22647;BME280;11490;42.726;23.268;2022-09-25T13:02:27;95216.84;;;22.15;39.43
22647;BME280;11490;42.726;23.268;2022-09-25T13:07:54;95160.53;;;21.84;41.08
22647;BME280;11490;42.726;23.268;2022-09-25T13:13:46;95112.63;;;21.58;39.63
22647;BME280;11490;42.726;23.268;2022-09-25T13:16:13;95157.56;;;21.95;40.32
22647;BME280;11490;42.726;23.268;2022-09-25T13:19:10;95192.13;;;22.25;39.48
22647;BME280;11490;42.726;23.268;2022-09-25T13:21:41;95111.59;;;21.76;40.08
22647;BME280;11490;42.726;23.268;2022-09-25T13:24:14;95168.69;;;22.29;40.01
22647;BME280;11490;42.726;23.268;2022-09-25T13:26:52;95165.47;;;22.27;40.12
22647;BME280;11490;42.726;23.268;2022-09-25T13:29:26;95159.00;;;22.14;40.35
22647;BME280;11490;42.726;23.268;2022-09-25T13:34:38;95126.16;;;22.02;39.79
22647;BME280;11490;42.726;23.268;2022-09-25T13:37:07;95144.25;;;22.07;39.65
22647;BME280;11490;42.726;23.268;2022-09-25T13:39:53;95166.75;;;22.30;39.13
22647;BME280;11490;42.726;23.268;2022-09-25T13:45:25;95171.56;;;22.33;40.11
22647;BME280;11490;42.726;23.268;2022-09-25T13:48:06;95148.81;;;22.20;39.33
22647;BME280;11490;42.726;23.268;2022-09-25T13:50:37;95171.84;;;22.31;39.99
22647;BME280;11490;42.726;23.268;2022-09-25T13:53:12;95139.44;;;22.04;40.52
22647;BME280;11490;42.726;23.268;2022-09-25T14:03:42;95156.81;;;22.25;40.73
22647;BME280;11490;42.726;23.268;2022-09-25T14:06:30;95158.06;;;22.19;42.09
22647;BME280;11490;42.726;23.268;2022-09-25T14:09:04;95132.81;;;21.96;42.05
22647;BME280;11490;42.726;23.268;2022-09-25T14:11:34;95120.25;;;21.78;39.77
22647;BME280;11490;42.726;23.268;2022-09-25T14:14:05;95166.97;;;22.11;41.12
22647;BME280;11490;42.726;23.268;2022-09-25T14:16:52;95145.91;;;21.94;40.71
22647;BME280;11490;42.726;23.268;2022-09-25T14:19:37;95139.31;;;21.86;40.79
22647;BME280;11490;42.726;23.268;2022-09-25T14:22:04;95104.91;;;21.51;41.05
22647;BME280;11490;42.726;23.268;2022-09-25T14:24:31;95155.84;;;21.76;41.62
22647;BME280;11490;42.726;23.268;2022-09-25T14:26:58;95118.00;;;21.49;41.38
22647;BME280;11490;42.726;23.268;2022-09-25T14:29:30;95140.69;;;21.75;40.88
22647;BME280;11490;42.726;23.268;2022-09-25T14:46:56;95108.84;;;21.67;40.45
22647;BME280;11490;42.726;23.268;2022-09-25T14:49:26;95149.56;;;21.89;42.05
22647;BME280;11490;42.726;23.268;2022-09-25T14:51:56;95097.50;;;21.43;41.61
22647;BME280;11490;42.726;23.268;2022-09-25T14:54:25;95130.38;;;21.64;42.26
22647;BME280;11490;42.726;23.268;2022-09-25T14:56:55;95109.97;;;21.66;40.59
22647;BME280;11490;42.726;23.268;2022-09-25T14:59:37;95123.53;;;21.66;40.54
22647;BME280;11490;42.726;23.268;2022-09-25T15:02:36;95145.38;;;21.61;41.86
22647;BME280;11490;42.726;23.268;2022-09-25T15:07:55;95105.38;;;21.31;40.33
22647;BME280;11490;42.726;23.268;2022-09-25T15:10:27;95154.13;;;21.58;41.03
22647;BME280;11490;42.726;23.268;2022-09-25T15:12:53;95116.88;;;21.14;42.23
22647;BME280;11490;42.726;23.268;2022-09-25T15:15:20;95131.53;;;21.27;41.84
22647;BME280;11490;42.726;23.268;2022-09-25T15:17:56;95101.03;;;21.07;39.60
22647;BME280;11490;42.726;23.268;2022-09-25T15:20:26;95136.66;;;21.14;41.32
22647;BME280;11490;42.726;23.268;2022-09-25T15:22:56;95156.78;;;21.13;41.02
22647;BME280;11490;42.726;23.268;2022-09-25T15:25:28;95142.94;;;21.01;41.65
22647;BME280;11490;42.726;23.268;2022-09-25T15:27:54;95137.72;;;20.91;41.47
22647;BME280;11490;42.726;23.268;2022-09-25T15:30:19;95139.63;;;20.91;40.00
22647;BME280;11490;42.726;23.268;2022-09-25T15:32:47;95147.47;;;20.92;39.43
22647;BME280;11490;42.726;23.268;2022-09-25T15:35:22;95142.88;;;20.79;39.33
22647;BME280;11490;42.726;23.268;2022-09-25T15:37:49;95120.59;;;20.55;38.75
22647;BME280;11490;42.726;23.268;2022-09-25T15:40:26;95157.72;;;20.68;37.04
22647;BME280;11490;42.726;23.268;2022-09-25T15:42:55;95116.19;;;20.45;37.72
22647;BME280;11490;42.726;23.268;2022-09-25T15:45:41;95155.53;;;20.56;38.20
22647;BME280;11490;42.726;23.268;2022-09-25T15:48:19;95130.91;;;20.25;38.74